Time;durP1;ratioP1;P1;durP2;ratioP2;P2;SDS_P1;SDS_P2;PMS_P1;PMS_P2;Temp;Humidity;BMP_temperature;BMP_pressure;BME280_temperature;BME280_humidity;BME280_pressure;Samples;Min_cycle;Max_cycle;Signal;HPM_P1;HPM_P2
2021/05/14 00:00:31;;;;;;;0.80;0.80;;;13.80;99.90;;;;;;5026331;28;21057;-76
2021/05/14 00:02:59;;;;;;;1.03;0.90;;;13.80;99.90;;;;;;5030948;28;20458;-76
2021/05/14 00:05:27;;;;;;;1.00;0.80;;;13.60;99.90;;;;;;5030995;28;20453;-76
2021/05/14 00:07:54;;;;;;;0.93;0.83;;;13.40;99.90;;;;;;5020795;28;20487;-76
2021/05/14 00:10:23;;;;;;;0.70;0.67;;;13.30;99.90;;;;;;5028580;28;20529;-77
2021/05/14 00:12:54;;;;;;;0.80;0.73;;;13.30;99.90;;;;;;5030323;28;20458;-76
2021/05/14 00:15:23;;;;;;;1.27;0.80;;;13.30;99.90;;;;;;5030397;28;20453;-78
2021/05/14 00:17:51;;;;;;;1.43;0.80;;;13.40;99.90;;;;;;5030817;28;20940;-75
2021/05/14 00:20:19;;;;;;;0.70;0.70;;;13.40;99.90;;;;;;5031410;28;20458;-76
2021/05/14 00:22:47;;;;;;;1.40;0.67;;;13.30;99.90;;;;;;5030484;28;20484;-76
2021/05/14 00:25:15;;;;;;;1.33;0.80;;;13.30;99.90;;;;;;5063863;28;20994;-78
2021/05/14 00:27:43;;;;;;;0.83;0.80;;;13.50;99.90;;;;;;5025042;28;20454;-77
2021/05/14 00:30:12;;;;;;;0.97;0.70;;;13.50;99.90;;;;;;5031309;28;20476;-75
2021/05/14 00:32:40;;;;;;;1.23;0.60;;;13.50;99.90;;;;;;5030950;28;20499;-76
2021/05/14 00:35:09;;;;;;;0.60;0.60;;;13.60;99.90;;;;;;5031647;28;20492;-75
2021/05/14 00:37:36;;;;;;;0.83;0.80;;;13.60;99.90;;;;;;5028924;28;20452;-76
2021/05/14 00:40:06;;;;;;;0.80;0.80;;;13.60;99.90;;;;;;5030668;28;20462;-76
2021/05/14 00:42:33;;;;;;;2.20;0.90;;;13.60;99.90;;;;;;5027791;28;20477;-77
2021/05/14 00:45:01;;;;;;;3.80;0.80;;;13.60;99.90;;;;;;5029579;28;20455;-75
2021/05/14 00:47:30;;;;;;;1.53;0.90;;;13.60;99.90;;;;;;5030079;28;20456;-78
2021/05/14 00:49:58;;;;;;;1.20;0.90;;;13.50;99.90;;;;;;5017396;28;20533;-78
2021/05/14 00:52:26;;;;;;;0.80;0.80;;;13.50;99.90;;;;;;5028765;28;20472;-77
2021/05/14 00:54:54;;;;;;;1.40;0.80;;;13.50;99.90;;;;;;5031286;28;20469;-76
2021/05/14 00:57:22;;;;;;;1.40;0.80;;;13.50;99.90;;;;;;5029931;28;20462;-77
2021/05/14 00:59:50;;;;;;;1.27;0.87;;;13.40;99.90;;;;;;5031069;28;20446;-78
2021/05/14 01:02:18;;;;;;;0.70;0.70;;;13.40;99.90;;;;;;5027408;28;20544;-78
2021/05/14 01:04:48;;;;;;;0.90;0.80;;;13.40;99.90;;;;;;5031264;28;20453;-77
2021/05/14 01:07:15;;;;;;;1.47;0.80;;;13.40;99.90;;;;;;5022233;28;20460;-77
2021/05/14 01:09:44;;;;;;;0.73;0.73;;;13.40;99.90;;;;;;5030477;28;20503;-75
2021/05/14 01:12:12;;;;;;;1.10;1.00;;;13.40;99.90;;;;;;5030303;28;20861;-76
2021/05/14 01:14:41;;;;;;;1.20;0.70;;;13.30;99.90;;;;;;5029900;28;20490;-77
2021/05/14 01:17:11;;;;;;;0.80;0.80;;;13.30;99.90;;;;;;5027758;28;20460;-76
2021/05/14 01:19:39;;;;;;;0.90;0.90;;;13.30;99.90;;;;;;5030418;28;20448;-79
2021/05/14 01:22:07;;;;;;;0.90;0.90;;;13.30;99.90;;;;;;5029224;28;21054;-77
2021/05/14 01:24:35;;;;;;;0.90;0.90;;;13.30;99.90;;;;;;5030803;28;20458;-78
2021/05/14 01:27:04;;;;;;;0.97;0.80;;;13.20;99.90;;;;;;5030318;28;20463;-77
2021/05/14 01:29:31;;;;;;;1.53;0.90;;;13.20;99.90;;;;;;5034475;28;20999;-76
2021/05/14 01:31:59;;;;;;;1.10;0.97;;;13.20;99.90;;;;;;5030794;28;21081;-77
2021/05/14 01:34:27;;;;;;;0.90;0.70;;;13.20;99.90;;;;;;5034581;28;20530;-77
2021/05/14 01:36:55;;;;;;;1.57;1.10;;;13.10;99.90;;;;;;5034096;28;20447;-78
2021/05/14 01:39:24;;;;;;;1.73;0.90;;;13.10;99.90;;;;;;5033554;28;20577;-74
2021/05/14 01:41:52;;;;;;;1.20;1.10;;;13.10;99.90;;;;;;5034861;28;20476;-75
2021/05/14 01:44:21;;;;;;;1.63;0.80;;;13.10;99.90;;;;;;5034610;28;20539;-78
2021/05/14 01:46:50;;;;;;;1.27;0.93;;;13.10;99.90;;;;;;5027689;28;20480;-77
2021/05/14 01:49:18;;;;;;;0.97;0.90;;;13.10;99.90;;;;;;5033662;28;21052;-79
2021/05/14 01:51:46;;;;;;;0.93;0.87;;;13.00;99.90;;;;;;5029741;28;20478;-77
2021/05/14 01:54:14;;;;;;;0.77;0.73;;;13.00;99.90;;;;;;5035046;28;20452;-75
2021/05/14 01:56:45;;;;;;;0.90;0.80;;;12.90;99.90;;;;;;5034073;28;20456;-77
2021/05/14 01:59:13;;;;;;;1.33;0.80;;;12.90;99.90;;;;;;5029054;28;20457;-77
2021/05/14 02:01:42;;;;;;;1.33;1.03;;;12.90;99.90;;;;;;5034413;28;20548;-76
2021/05/14 02:04:10;;;;;;;1.50;1.10;;;12.80;99.90;;;;;;5032799;28;20493;-76
2021/05/14 02:06:37;;;;;;;1.03;0.97;;;12.80;99.90;;;;;;5034220;28;20461;-77
2021/05/14 02:09:06;;;;;;;1.17;0.80;;;12.80;99.90;;;;;;5065863;28;20978;-77
2021/05/14 02:11:34;;;;;;;1.30;1.00;;;12.80;99.90;;;;;;5034762;28;20470;-78
2021/05/14 02:14:03;;;;;;;1.07;0.97;;;12.80;99.90;;;;;;5033692;28;20460;-76
2021/05/14 02:16:31;;;;;;;1.20;1.10;;;12.70;99.90;;;;;;5043778;28;20463;-77
2021/05/14 02:18:59;;;;;;;0.80;0.80;;;12.70;99.90;;;;;;5017412;28;20497;-78
2021/05/14 02:21:27;;;;;;;1.00;1.00;;;12.60;99.90;;;;;;5033158;28;21020;-78
2021/05/14 02:23:54;;;;;;;0.93;0.90;;;12.60;99.90;;;;;;5033189;28;20465;-79
2021/05/14 02:26:22;;;;;;;1.00;0.90;;;12.50;99.90;;;;;;5031856;28;20453;-78
2021/05/14 02:28:49;;;;;;;1.20;0.90;;;12.60;99.90;;;;;;5027799;28;20460;-77
2021/05/14 02:31:18;;;;;;;0.93;0.83;;;12.60;99.90;;;;;;5031762;28;20564;-76
2021/05/14 02:33:46;;;;;;;1.20;0.90;;;12.40;99.90;;;;;;5026111;28;20461;-79
2021/05/14 02:36:13;;;;;;;0.87;0.87;;;12.40;99.90;;;;;;5029026;28;20461;-77
2021/05/14 02:38:41;;;;;;;1.33;0.90;;;12.50;99.90;;;;;;5027049;28;20467;-77
2021/05/14 02:41:11;;;;;;;0.90;0.80;;;12.50;99.90;;;;;;5033389;28;20478;-77
2021/05/14 02:43:40;;;;;;;0.90;0.90;;;12.60;99.90;;;;;;5032858;28;20965;-77
2021/05/14 02:46:08;;;;;;;1.10;0.90;;;12.60;99.90;;;;;;5033820;28;20486;-76
2021/05/14 02:48:36;;;;;;;1.37;0.90;;;12.60;99.90;;;;;;5032797;28;20469;-74
2021/05/14 02:51:05;;;;;;;2.10;0.90;;;12.40;99.90;;;;;;5023706;28;20892;-77
2021/05/14 02:53:33;;;;;;;1.10;0.70;;;12.40;99.90;;;;;;5032937;28;20972;-77
2021/05/14 02:56:01;;;;;;;0.80;0.77;;;12.30;99.90;;;;;;5033628;28;20468;-76
2021/05/14 02:58:28;;;;;;;1.00;0.87;;;12.40;99.90;;;;;;5033311;28;20459;-77
2021/05/14 03:00:56;;;;;;;1.20;1.10;;;12.40;99.90;;;;;;5033199;28;20480;-76
2021/05/14 03:03:24;;;;;;;0.70;0.60;;;12.40;99.90;;;;;;5031164;28;20462;-77
2021/05/14 03:05:53;;;;;;;0.80;0.80;;;12.30;99.90;;;;;;5033992;28;20468;-76
2021/05/14 03:08:21;;;;;;;1.43;0.77;;;12.20;99.90;;;;;;5032672;28;21000;-76
2021/05/14 03:10:48;;;;;;;1.10;0.90;;;12.30;99.90;;;;;;5032949;28;20484;-75
2021/05/14 03:13:16;;;;;;;0.70;0.70;;;12.40;99.90;;;;;;5032457;28;20455;-76
2021/05/14 03:15:43;;;;;;;0.80;0.80;;;12.30;99.90;;;;;;5031199;28;20525;-75
2021/05/14 03:18:11;;;;;;;0.80;0.80;;;12.20;99.90;;;;;;5031604;28;20503;-78
2021/05/14 03:20:39;;;;;;;1.03;0.93;;;12.30;99.90;;;;;;5032788;28;20466;-76
2021/05/14 03:23:08;;;;;;;1.00;0.90;;;12.20;99.90;;;;;;5030503;28;20465;-77
2021/05/14 03:25:35;;;;;;;0.80;0.80;;;12.20;99.90;;;;;;5032700;28;20457;-77
2021/05/14 03:28:03;;;;;;;1.27;0.80;;;12.30;99.90;;;;;;5031215;28;20439;-77
2021/05/14 03:30:32;;;;;;;1.40;1.00;;;12.30;99.90;;;;;;5030484;28;20476;-76
2021/05/14 03:33:00;;;;;;;0.90;0.90;;;12.20;99.90;;;;;;5029912;28;20462;-77
2021/05/14 03:35:28;;;;;;;3.37;1.00;;;12.20;99.90;;;;;;5032521;28;20501;-77
2021/05/14 03:37:55;;;;;;;0.93;0.90;;;12.30;99.90;;;;;;5032421;28;20459;-77
2021/05/14 03:40:34;;;;;;;1.70;0.83;;;12.30;99.90;;;;;;5032531;28;20468;-78
2021/05/14 03:43:02;;;;;;;0.70;0.70;;;12.20;99.90;;;;;;5033585;28;20455;-77
2021/05/14 03:45:30;;;;;;;1.60;1.23;;;12.20;99.90;;;;;;5032804;28;20464;-77
2021/05/14 03:47:58;;;;;;;0.93;0.83;;;12.00;99.90;;;;;;5031605;28;20938;-77
2021/05/14 03:50:30;;;;;;;0.70;0.67;;;12.00;99.90;;;;;;5032558;28;20481;-76
2021/05/14 03:53:02;;;;;;;3.43;0.80;;;11.90;99.90;;;;;;5031296;28;20955;-76
2021/05/14 03:55:30;;;;;;;0.90;0.90;;;12.00;99.90;;;;;;5026180;28;20465;-75
2021/05/14 03:57:58;;;;;;;2.60;1.00;;;12.10;99.90;;;;;;5025898;28;20470;-76
2021/05/14 04:00:27;;;;;;;0.80;0.80;;;12.20;99.90;;;;;;5023676;28;20494;-76
2021/05/14 04:02:56;;;;;;;1.67;0.90;;;12.20;99.90;;;;;;5029996;28;20456;-75
2021/05/14 04:05:24;;;;;;;0.90;0.90;;;12.30;99.90;;;;;;5021370;28;20458;-77
2021/05/14 04:07:52;;;;;;;1.07;0.97;;;12.30;99.90;;;;;;5026549;28;20471;-74
2021/05/14 04:10:30;;;;;;;0.90;0.90;;;12.30;99.90;;;;;;5024343;28;20985;-78
2021/05/14 04:15:45;;;;;;;3.30;1.00;;;12.30;99.90;;;;;;5031384;28;20445;-76
2021/05/14 04:18:13;;;;;;;1.00;0.90;;;12.30;99.90;;;;;;5031277;28;20493;-76
2021/05/14 04:20:40;;;;;;;1.73;0.80;;;12.20;99.90;;;;;;5030691;28;22272;-77
2021/05/14 04:23:08;;;;;;;0.80;0.80;;;12.10;99.90;;;;;;5029984;28;20471;-75
2021/05/14 04:25:37;;;;;;;1.10;0.80;;;12.10;99.90;;;;;;5030688;28;20519;-76
2021/05/14 04:28:06;;;;;;;1.00;1.00;;;12.00;99.90;;;;;;5030936;28;20449;-76
2021/05/14 04:30:34;;;;;;;0.90;0.90;;;12.00;99.90;;;;;;5029638;28;20478;-76
2021/05/14 04:33:02;;;;;;;1.63;1.00;;;12.00;99.90;;;;;;5032169;28;20521;-78
2021/05/14 04:39:50;;;;;;;1.33;1.00;;;12.00;99.90;;;;;;5010300;28;20601;-77
2021/05/14 04:42:18;;;;;;;1.17;0.90;;;12.00;99.90;;;;;;5028258;28;20528;-77
2021/05/14 04:48:23;;;;;;;1.57;1.20;;;12.00;99.90;;;;;;4978892;28;21104;-80
2021/05/14 04:51:02;;;;;;;1.43;0.90;;;12.00;99.90;;;;;;4990407;28;20507;-75
2021/05/14 04:53:31;;;;;;;1.40;0.90;;;12.00;99.90;;;;;;5031217;28;20511;-76
2021/05/14 04:55:59;;;;;;;1.00;0.80;;;12.00;99.90;;;;;;5029360;28;20568;-75
2021/05/14 04:58:26;;;;;;;1.70;1.00;;;12.10;99.90;;;;;;5029913;28;20488;-75
2021/05/14 05:00:55;;;;;;;1.30;1.20;;;12.10;99.90;;;;;;5031011;28;20486;-78
2021/05/14 05:03:23;;;;;;;1.20;1.00;;;12.10;99.90;;;;;;5029267;28;20457;-76
2021/05/14 05:05:51;;;;;;;0.97;0.80;;;12.10;99.90;;;;;;5028821;28;20457;-76
2021/05/14 05:08:18;;;;;;;1.27;0.90;;;12.20;99.90;;;;;;5029964;28;20457;-78
2021/05/14 05:10:51;;;;;;;1.53;0.90;;;12.20;99.90;;;;;;5025630;28;20546;-78
2021/05/14 05:13:18;;;;;;;1.37;1.00;;;12.20;99.90;;;;;;5023932;28;20453;-77
2021/05/14 05:15:46;;;;;;;1.13;0.80;;;12.20;99.90;;;;;;5026723;28;20898;-76
2021/05/14 05:18:14;;;;;;;1.03;0.93;;;12.10;99.90;;;;;;5041043;28;20457;-77
2021/05/14 05:20:42;;;;;;;1.10;0.90;;;12.10;99.90;;;;;;5020473;28;20454;-75
2021/05/14 05:23:10;;;;;;;0.97;0.90;;;12.00;99.90;;;;;;5025568;28;20485;-77
2021/05/14 05:25:37;;;;;;;0.90;0.90;;;11.80;99.90;;;;;;5036877;28;20477;-77
2021/05/14 05:28:05;;;;;;;0.93;0.83;;;11.80;99.90;;;;;;5029538;28;20549;-76
2021/05/14 05:30:33;;;;;;;1.57;1.13;;;11.70;99.90;;;;;;5030316;28;20501;-77
2021/05/14 05:33:00;;;;;;;1.03;0.90;;;11.70;99.90;;;;;;5030365;28;20447;-76
2021/05/14 05:35:29;;;;;;;0.90;0.90;;;11.80;99.90;;;;;;5030947;28;20976;-77
2021/05/14 05:37:56;;;;;;;3.77;1.00;;;11.90;99.90;;;;;;5034180;28;21116;-77
2021/05/14 05:40:24;;;;;;;0.80;0.80;;;12.00;99.90;;;;;;5033582;28;20465;-75
2021/05/14 05:42:52;;;;;;;1.20;0.80;;;12.10;99.90;;;;;;5029254;28;20470;-77
2021/05/14 05:45:20;;;;;;;0.73;0.73;;;12.20;99.90;;;;;;5030084;28;20466;-77
2021/05/14 05:47:48;;;;;;;1.00;0.60;;;12.10;99.90;;;;;;5023029;28;20492;-77
2021/05/14 05:50:15;;;;;;;0.63;0.63;;;12.20;99.90;;;;;;5026635;28;20988;-76
2021/05/14 05:52:44;;;;;;;1.07;0.77;;;12.30;99.90;;;;;;5023832;28;22154;-75
2021/05/14 05:55:12;;;;;;;1.67;0.70;;;12.30;99.90;;;;;;5028969;28;20468;-78
2021/05/14 05:57:39;;;;;;;2.07;0.80;;;12.30;99.90;;;;;;5025070;28;20483;-76
2021/05/14 06:00:08;;;;;;;0.93;0.83;;;12.40;99.90;;;;;;5018037;28;20464;-77
2021/05/14 06:02:36;;;;;;;0.80;0.67;;;12.30;99.90;;;;;;5026168;28;20488;-76
2021/05/14 06:05:05;;;;;;;1.53;0.83;;;12.40;99.90;;;;;;5027551;28;20472;-76
2021/05/14 06:07:33;;;;;;;1.20;0.80;;;12.50;99.90;;;;;;5027018;28;20514;-75
2021/05/14 06:10:01;;;;;;;3.03;0.87;;;12.60;99.90;;;;;;5028399;28;20509;-77
2021/05/14 06:12:29;;;;;;;1.10;0.63;;;12.80;99.90;;;;;;5033760;28;20480;-76
2021/05/14 06:14:56;;;;;;;0.77;0.70;;;13.00;99.90;;;;;;5032135;28;20802;-74
2021/05/14 06:17:24;;;;;;;0.60;0.60;;;13.10;99.90;;;;;;5030474;28;20464;-76
2021/05/14 06:19:55;;;;;;;0.60;0.60;;;13.30;99.90;;;;;;5032152;28;20452;-77
2021/05/14 06:22:22;;;;;;;0.70;0.70;;;13.40;99.90;;;;;;5026361;28;20470;-79
2021/05/14 06:24:50;;;;;;;1.47;0.70;;;13.40;99.90;;;;;;5031989;28;20454;-75
2021/05/14 06:27:19;;;;;;;1.17;0.60;;;13.50;99.90;;;;;;5028713;28;20747;-76
2021/05/14 06:29:47;;;;;;;0.67;0.67;;;13.30;99.90;;;;;;5030292;28;20456;-76
2021/05/14 06:32:14;;;;;;;0.77;0.77;;;13.40;99.90;;;;;;5028347;28;20487;-76
2021/05/14 06:34:44;;;;;;;1.37;0.70;;;13.50;99.90;;;;;;5031154;28;20966;-75
2021/05/14 06:37:11;;;;;;;0.70;0.70;;;13.60;99.90;;;;;;5026895;28;20455;-76
2021/05/14 06:39:39;;;;;;;1.20;0.60;;;13.70;99.90;;;;;;5028503;28;20484;-76
2021/05/14 06:42:07;;;;;;;1.27;0.67;;;13.90;99.90;;;;;;5026281;28;20481;-77
2021/05/14 06:44:35;;;;;;;0.73;0.73;;;14.20;99.90;;;;;;5029810;28;20974;-76
2021/05/14 06:47:03;;;;;;;1.07;0.80;;;14.50;99.90;;;;;;5027892;28;20468;-69
2021/05/14 06:49:31;;;;;;;0.57;0.57;;;14.90;99.90;;;;;;5032654;28;20515;-81
2021/05/14 06:51:58;;;;;;;1.53;0.60;;;15.40;99.90;;;;;;5031860;28;20482;-72
2021/05/14 06:54:26;;;;;;;5.30;0.80;;;15.50;99.90;;;;;;5030339;28;20463;-73
2021/05/14 06:56:54;;;;;;;1.53;0.80;;;15.80;99.90;;;;;;5039981;28;20850;-74
2021/05/14 06:59:21;;;;;;;3.47;1.10;;;16.10;99.90;;;;;;5031414;28;21041;-74
2021/05/14 07:01:50;;;;;;;0.77;0.63;;;16.40;99.90;;;;;;5028483;28;20479;-72
2021/05/14 07:04:19;;;;;;;1.30;0.90;;;16.70;99.90;;;;;;5027636;28;20547;-75
2021/05/14 07:06:46;;;;;;;1.23;0.60;;;16.90;99.90;;;;;;5028809;28;20539;-75
2021/05/14 07:09:14;;;;;;;0.70;0.70;;;17.00;99.90;;;;;;5026559;28;20830;-73
2021/05/14 07:11:44;;;;;;;1.07;0.50;;;17.20;99.90;;;;;;5031998;28;20525;-71
2021/05/14 07:14:12;;;;;;;1.80;0.67;;;17.60;99.90;;;;;;5030844;28;20822;-74
2021/05/14 07:16:39;;;;;;;0.53;0.53;;;17.70;99.90;;;;;;5033985;28;20464;-73
2021/05/14 07:19:10;;;;;;;0.60;0.60;;;17.70;99.90;;;;;;5032681;28;20458;-77
2021/05/14 07:21:38;;;;;;;1.60;0.60;;;17.90;99.90;;;;;;5032099;28;20480;-77
2021/05/14 07:24:07;;;;;;;0.50;0.50;;;17.60;99.90;;;;;;5032570;28;20463;-77
2021/05/14 07:26:35;;;;;;;0.50;0.50;;;17.40;99.90;;;;;;5032260;28;20468;-76
2021/05/14 07:29:06;;;;;;;0.50;0.50;;;17.40;99.90;;;;;;5027998;28;22180;-76
2021/05/14 07:31:34;;;;;;;0.80;0.80;;;17.40;99.90;;;;;;5026825;28;20496;-78
2021/05/14 07:34:03;;;;;;;2.40;0.70;;;17.40;99.90;;;;;;5027650;28;20477;-76
2021/05/14 07:36:32;;;;;;;1.30;0.53;;;17.40;99.90;;;;;;5030785;28;20456;-75
2021/05/14 07:38:59;;;;;;;1.13;0.50;;;17.30;99.90;;;;;;5025314;28;20460;-79
2021/05/14 07:41:27;;;;;;;0.50;0.50;;;17.30;99.90;;;;;;5030645;28;20464;-78
2021/05/14 07:43:55;;;;;;;1.07;0.50;;;17.00;99.90;;;;;;5028325;28;20811;-77
2021/05/14 07:46:22;;;;;;;0.50;0.50;;;17.00;99.90;;;;;;5028626;28;20482;-77
2021/05/14 07:48:55;;;;;;;28.47;11.40;;;16.90;99.90;;;;;;5023063;28;20484;-77
2021/05/14 07:51:22;;;;;;;2.83;0.97;;;16.90;99.90;;;;;;5023234;28;20584;-77
2021/05/14 07:53:51;;;;;;;0.60;0.60;;;16.90;99.90;;;;;;5025088;28;20448;-77
2021/05/14 07:56:18;;;;;;;0.50;0.50;;;16.90;99.90;;;;;;5030803;28;20467;-76
2021/05/14 07:58:46;;;;;;;0.70;0.50;;;16.80;99.90;;;;;;5022215;28;20892;-76
2021/05/14 08:01:14;;;;;;;0.53;0.50;;;16.80;99.90;;;;;;5023863;28;20539;-77
2021/05/14 08:03:42;;;;;;;0.50;0.50;;;16.80;99.90;;;;;;5023189;28;20466;-76
2021/05/14 08:06:09;;;;;;;1.03;0.83;;;16.90;99.90;;;;;;5022595;28;20452;-76
2021/05/14 08:08:39;;;;;;;1.47;1.00;;;16.90;99.90;;;;;;5020741;28;20475;-76
2021/05/14 08:14:57;;;;;;;1.10;0.50;;;17.00;99.90;;;;;;4966947;28;20879;-75
2021/05/14 08:17:25;;;;;;;1.43;1.33;;;17.00;99.90;;;;;;5023369;28;20488;-76
2021/05/14 08:19:53;;;;;;;0.90;0.60;;;17.10;99.90;;;;;;5019744;28;20473;-77
2021/05/14 08:22:20;;;;;;;0.60;0.50;;;17.00;99.90;;;;;;5025805;28;20476;-75
2021/05/14 08:24:49;;;;;;;0.50;0.50;;;17.10;99.90;;;;;;5026353;28;20552;-76
2021/05/14 08:27:17;;;;;;;1.03;0.60;;;17.10;99.90;;;;;;5025940;28;20463;-77
2021/05/14 08:29:44;;;;;;;0.50;0.50;;;17.10;99.90;;;;;;5025603;28;20457;-76
2021/05/14 08:32:13;;;;;;;0.97;0.57;;;17.00;99.90;;;;;;5025519;28;20486;-76
2021/05/14 08:34:41;;;;;;;0.73;0.60;;;17.10;99.90;;;;;;5022205;28;20471;-76
2021/05/14 08:37:08;;;;;;;0.40;0.40;;;17.10;99.90;;;;;;5021743;28;20464;-75
2021/05/14 08:39:36;;;;;;;0.40;0.40;;;17.20;99.90;;;;;;5029044;28;20478;-77
2021/05/14 08:42:05;;;;;;;2.37;0.63;;;17.20;99.90;;;;;;5026771;28;20484;-75
2021/05/14 08:44:32;;;;;;;1.03;0.60;;;17.20;99.90;;;;;;5022794;28;20461;-76
2021/05/14 08:47:00;;;;;;;0.70;0.50;;;17.10;99.90;;;;;;5021413;28;20459;-77
2021/05/14 08:49:29;;;;;;;0.90;0.60;;;17.10;99.90;;;;;;5025292;28;20444;-76
2021/05/14 08:51:58;;;;;;;1.47;0.63;;;17.00;99.90;;;;;;5027458;28;20493;-75
2021/05/14 08:54:25;;;;;;;0.70;0.50;;;17.00;99.90;;;;;;5022979;28;20461;-75
2021/05/14 08:56:53;;;;;;;0.40;0.40;;;17.00;99.90;;;;;;5022171;28;20488;-76
2021/05/14 08:59:21;;;;;;;1.60;0.47;;;17.10;99.90;;;;;;5022282;28;20565;-75
2021/05/14 09:01:50;;;;;;;2.53;0.70;;;17.20;99.90;;;;;;5020543;28;20482;-76
2021/05/14 09:04:19;;;;;;;0.57;0.50;;;17.20;99.90;;;;;;5022657;28;20464;-76
2021/05/14 09:06:47;;;;;;;2.00;0.70;;;17.30;99.90;;;;;;5022249;28;20984;-76
2021/05/14 09:09:17;;;;;;;0.47;0.47;;;17.30;99.90;;;;;;5021786;28;20458;-76
2021/05/14 09:11:47;;;;;;;1.50;0.50;;;17.40;99.90;;;;;;5053518;28;22552;-76
2021/05/14 09:14:41;;;;;;;0.90;0.60;;;17.40;99.90;;;;;;5022592;28;20458;-76
2021/05/14 09:17:10;;;;;;;0.50;0.50;;;17.30;99.90;;;;;;5011662;28;20496;-77
2021/05/14 09:19:39;;;;;;;1.10;0.50;;;17.20;99.90;;;;;;5027832;28;20449;-74
2021/05/14 09:22:09;;;;;;;0.40;0.40;;;17.10;99.90;;;;;;5021981;28;20474;-76
2021/05/14 09:24:38;;;;;;;1.13;0.87;;;16.90;99.90;;;;;;5023069;28;20456;-75
2021/05/14 09:27:17;;;;;;;0.60;0.60;;;16.90;99.90;;;;;;5021962;28;20488;-76
2021/05/14 09:29:45;;;;;;;2.90;0.90;;;17.00;99.90;;;;;;5015510;28;20472;-76
2021/05/14 09:32:23;;;;;;;0.53;0.53;;;17.00;99.90;;;;;;5021517;28;20469;-76
2021/05/14 09:34:53;;;;;;;0.50;0.40;;;17.00;99.90;;;;;;5023120;28;20551;-76
2021/05/14 09:37:23;;;;;;;0.53;0.53;;;17.00;99.90;;;;;;5053453;28;20510;-76
2021/05/14 09:40:11;;;;;;;1.27;0.50;;;16.90;99.90;;;;;;5022426;28;20460;-76
2021/05/14 09:42:38;;;;;;;1.40;0.90;;;16.80;99.90;;;;;;5024361;28;20479;-74
2021/05/14 09:45:13;;;;;;;0.93;0.70;;;16.80;99.90;;;;;;5020104;28;20469;-75
2021/05/14 09:47:41;;;;;;;0.60;0.60;;;16.80;99.90;;;;;;5022726;28;20459;-76
2021/05/14 09:50:29;;;;;;;0.77;0.60;;;16.80;99.90;;;;;;5023689;28;21041;-74
2021/05/14 09:53:11;;;;;;;1.27;0.60;;;16.80;99.90;;;;;;5026511;28;20495;-75
2021/05/14 09:55:43;;;;;;;0.60;0.50;;;16.80;99.90;;;;;;5026542;28;21177;-77
2021/05/14 09:58:15;;;;;;;0.50;0.50;;;16.60;99.90;;;;;;5029152;28;20479;-76
2021/05/14 10:00:43;;;;;;;1.03;0.57;;;16.30;99.90;;;;;;5056545;28;20451;-76
2021/05/14 10:03:11;;;;;;;1.23;0.60;;;16.40;99.90;;;;;;5057420;28;20453;-76
2021/05/14 10:05:40;;;;;;;0.70;0.60;;;16.50;99.90;;;;;;5031566;28;20453;-75
2021/05/14 10:08:10;;;;;;;0.70;0.60;;;16.50;99.90;;;;;;5058752;28;20466;-76
2021/05/14 10:10:40;;;;;;;1.50;0.53;;;16.60;99.90;;;;;;5063367;28;20456;-76
2021/05/14 10:13:08;;;;;;;0.60;0.60;;;16.50;99.90;;;;;;5030248;28;20472;-76
2021/05/14 10:15:36;;;;;;;0.90;0.60;;;16.50;99.90;;;;;;5030278;28;20465;-75
2021/05/14 10:18:07;;;;;;;0.57;0.50;;;16.40;99.90;;;;;;5030230;28;20514;-76
2021/05/14 10:20:37;;;;;;;0.50;0.50;;;16.50;99.90;;;;;;5057695;28;20457;-76
2021/05/14 10:23:06;;;;;;;0.93;0.60;;;16.80;99.90;;;;;;5030721;28;20796;-76
2021/05/14 10:25:47;;;;;;;0.80;0.60;;;17.00;99.90;;;;;;5030381;28;20466;-76
2021/05/14 10:28:18;;;;;;;0.70;0.50;;;17.10;99.90;;;;;;5029043;28;20445;-76
2021/05/14 10:31:21;;;;;;;1.10;0.50;;;17.20;99.90;;;;;;5029078;28;20446;-76
2021/05/14 10:33:51;;;;;;;0.57;0.57;;;17.20;99.90;;;;;;5028153;28;20467;-75
2021/05/14 10:36:45;;;;;;;0.60;0.57;;;17.20;99.90;;;;;;5030481;28;20448;-75
2021/05/14 10:39:15;;;;;;;1.20;0.50;;;17.20;99.90;;;;;;5028378;28;20488;-75
2021/05/14 10:41:55;;;;;;;0.80;0.57;;;17.20;99.90;;;;;;5030142;28;20467;-76
2021/05/14 10:44:54;;;;;;;1.27;0.50;;;17.20;99.90;;;;;;5030452;28;20456;-77
2021/05/14 10:47:46;;;;;;;0.50;0.50;;;17.20;99.90;;;;;;4988272;28;20540;-75
2021/05/14 10:50:39;;;;;;;0.97;0.50;;;17.10;99.90;;;;;;5023117;28;20446;-76
2021/05/14 10:53:31;;;;;;;1.07;0.50;;;17.10;99.90;;;;;;5025425;28;21195;-77
2021/05/14 10:56:33;;;;;;;2.20;0.50;;;17.10;99.90;;;;;;5024914;28;20453;-74
2021/05/14 10:59:11;;;;;;;0.80;0.80;;;17.10;99.90;;;;;;5041107;28;20567;-75
2021/05/14 11:01:41;;;;;;;1.23;0.70;;;17.00;99.90;;;;;;5031513;28;20476;-75
2021/05/14 11:04:41;;;;;;;0.53;0.53;;;17.00;99.90;;;;;;5035874;28;20445;-76
2021/05/14 11:07:33;;;;;;;0.80;0.60;;;16.90;99.90;;;;;;5028448;28;20961;-78
2021/05/14 11:10:35;;;;;;;0.50;0.40;;;17.00;99.90;;;;;;5028139;28;20472;-76
2021/05/14 11:13:35;;;;;;;0.93;0.50;;;17.10;99.90;;;;;;5017734;28;20479;-76
2021/05/14 11:16:40;;;;;;;1.03;0.60;;;17.10;99.90;;;;;;5035663;28;20464;-76
2021/05/14 11:19:16;;;;;;;0.50;0.50;;;17.20;99.90;;;;;;4983912;28;20457;-77
2021/05/14 11:22:01;;;;;;;1.00;0.50;;;17.40;99.90;;;;;;5023990;28;20481;-77
2021/05/14 11:24:32;;;;;;;0.70;0.50;;;17.50;99.90;;;;;;5028411;28;20452;-76
2021/05/14 11:27:06;;;;;;;1.43;0.73;;;17.50;99.90;;;;;;5026020;28;20465;-79
2021/05/14 11:29:36;;;;;;;1.13;0.93;;;17.60;99.90;;;;;;5030621;28;20461;-78
2021/05/14 11:32:16;;;;;;;0.77;0.57;;;17.80;99.90;;;;;;5042230;28;21041;-79
2021/05/14 11:35:01;;;;;;;0.60;0.60;;;17.90;99.90;;;;;;5062297;28;20502;-78
2021/05/14 11:37:30;;;;;;;0.67;0.67;;;18.00;99.90;;;;;;5023614;28;20456;-78
2021/05/14 11:40:05;;;;;;;1.57;0.43;;;18.20;99.90;;;;;;5028949;28;21008;-78
2021/05/14 11:42:39;;;;;;;0.60;0.60;;;18.30;99.90;;;;;;5026965;28;21061;-76
2021/05/14 11:45:08;;;;;;;2.77;1.33;;;18.30;99.90;;;;;;5025123;28;20482;-76
2021/05/14 11:47:43;;;;;;;0.53;0.50;;;18.30;99.90;;;;;;5022828;28;21345;-77
2021/05/14 11:50:11;;;;;;;0.57;0.57;;;18.20;99.90;;;;;;5026791;28;20457;-76
2021/05/14 11:52:41;;;;;;;1.67;0.60;;;18.10;99.90;;;;;;5049934;28;20569;-76
2021/05/14 11:55:11;;;;;;;1.10;0.60;;;18.10;99.90;;;;;;5026092;28;20462;-77
2021/05/14 11:57:39;;;;;;;1.00;0.60;;;18.10;99.90;;;;;;5023942;28;21305;-76
2021/05/14 12:00:09;;;;;;;1.47;0.60;;;18.10;99.90;;;;;;5027620;28;20466;-78
2021/05/14 12:02:43;;;;;;;3.03;0.40;;;18.10;99.90;;;;;;5026545;28;20499;-78
2021/05/14 12:05:14;;;;;;;4.10;0.50;;;18.10;99.90;;;;;;5028374;28;21455;-77
2021/05/14 12:07:43;;;;;;;2.07;0.70;;;18.20;99.90;;;;;;5056727;28;20467;-77
2021/05/14 12:10:18;;;;;;;0.40;0.40;;;18.20;99.90;;;;;;5047249;28;20467;-79
2021/05/14 12:12:47;;;;;;;1.27;0.70;;;18.30;99.90;;;;;;5030963;28;21302;-79
2021/05/14 12:15:18;;;;;;;2.20;0.57;;;18.40;99.90;;;;;;5027937;28;21034;-78
2021/05/14 12:17:49;;;;;;;0.80;0.80;;;18.40;99.90;;;;;;5029136;28;20452;-78
2021/05/14 12:20:32;;;;;;;1.13;0.50;;;18.50;99.90;;;;;;5030796;28;20455;-78
2021/05/14 12:23:02;;;;;;;1.30;0.93;;;18.50;99.90;;;;;;5029658;28;20452;-78
2021/05/14 12:25:40;;;;;;;1.33;0.43;;;18.60;99.90;;;;;;5023708;28;20457;-78
2021/05/14 12:28:37;;;;;;;0.50;0.50;;;18.60;99.90;;;;;;5028037;28;20557;-78
2021/05/14 12:31:06;;;;;;;1.10;0.50;;;18.60;99.90;;;;;;5027006;28;20469;-78
2021/05/14 12:33:47;;;;;;;0.40;0.40;;;18.60;99.90;;;;;;5057637;28;20475;-78
2021/05/14 12:36:15;;;;;;;0.60;0.50;;;18.60;99.90;;;;;;5030225;28;20452;-78
2021/05/14 12:38:45;;;;;;;0.40;0.40;;;18.70;99.90;;;;;;5030548;28;20460;-78
2021/05/14 12:41:21;;;;;;;0.53;0.50;;;18.70;99.90;;;;;;5025991;28;20472;-78
2021/05/14 12:43:49;;;;;;;1.50;0.50;;;18.80;99.90;;;;;;5025207;28;20982;-78
2021/05/14 12:46:16;;;;;;;1.13;0.40;;;18.80;99.90;;;;;;5030094;28;20466;-78
2021/05/14 12:48:47;;;;;;;0.60;0.50;;;18.80;99.90;;;;;;5058305;28;20448;-78
2021/05/14 12:51:22;;;;;;;0.50;0.50;;;18.80;99.90;;;;;;5028870;28;20490;-79
2021/05/14 12:53:56;;;;;;;1.77;0.53;;;18.80;99.90;;;;;;5027446;28;21174;-78
2021/05/14 12:56:41;;;;;;;0.80;0.57;;;18.80;99.90;;;;;;5028232;28;20459;-78
2021/05/14 12:59:09;;;;;;;0.60;0.60;;;18.90;99.90;;;;;;5029648;28;20494;-78
2021/05/14 13:01:48;;;;;;;1.03;0.40;;;18.80;99.90;;;;;;5028042;28;20486;-78
2021/05/14 13:04:18;;;;;;;1.93;0.50;;;18.90;99.90;;;;;;5029451;28;20433;-79
2021/05/14 13:06:45;;;;;;;0.80;0.50;;;18.80;99.90;;;;;;5060336;28;20449;-78
2021/05/14 13:09:15;;;;;;;0.50;0.50;;;18.80;99.90;;;;;;5029232;28;20457;-78
2021/05/14 13:11:43;;;;;;;0.50;0.50;;;19.00;99.90;;;;;;5027384;28;20562;-78
2021/05/14 13:14:13;;;;;;;0.87;0.40;;;19.10;99.90;;;;;;5029052;28;20484;-78
2021/05/14 13:16:41;;;;;;;1.17;0.50;;;19.10;99.90;;;;;;5028562;28;20547;-78
2021/05/14 13:19:08;;;;;;;2.30;0.70;;;19.10;99.90;;;;;;5024350;28;20472;-78